TimeCST,TemperatureF,Dew PointF,Humidity,Sea Level PressureIn,VisibilityMPH,Wind Direction,Wind SpeedMPH,Gust SpeedMPH,PrecipitationIn,Events,Conditions,WindDirDegrees,DateUTC
6:00 AM,69,62,72,,6,ESE,9.2,,,Rain,Rain,110,2013-08-18 12:00:00
6:00 AM,68.0,62.6,83,30.05,6.2,ESE,9.2,-,N/A,Rain,Rain,110,2013-08-18 12:00:00
7:00 AM,69.8,62.6,78,30.06,6.2,East,6.9,-,N/A,,Mostly Cloudy,100,2013-08-18 13:00:00
8:00 AM,73.4,62.6,69,30.07,6.2,ESE,6.9,-,N/A,,Mostly Cloudy,120,2013-08-18 14:00:00
9:00 AM,75,64,61,,6,East,11.5,,,,Overcast,90,2013-08-18 15:00:00
9:00 AM,75.2,64.4,69,30.07,6.2,East,11.5,-,N/A,,Mostly Cloudy,90,2013-08-18 15:00:00
10:00 AM,78.8,64.4,61,30.07,6.2,East,15.0,-,N/A,,Mostly Cloudy,80,2013-08-18 16:00:00
11:00 AM,80.6,62.6,54,30.05,6.2,East,16.1,-,N/A,,Mostly Cloudy,80,2013-08-18 17:00:00
12:00 PM,81,63,44,,6,ENE,11.5,,,,Overcast,60,2013-08-18 18:00:00
12:00 PM,80.6,62.6,54,30.03,6.2,ENE,11.5,-,N/A,,Mostly Cloudy,60,2013-08-18 18:00:00
1:00 PM,82.4,64.4,54,29.99,6.2,East,6.9,-,N/A,,Mostly Cloudy,100,2013-08-18 19:00:00
2:00 PM,82.4,62.6,51,29.97,6.2,East,10.4,-,N/A,,Mostly Cloudy,80,2013-08-18 20:00:00
2:10 PM,71.6,69.8,94,29.99,3.1,West,12.7,-,N/A,Thunderstorm,Mostly Cloudy,270,2013-08-18 20:10:00
2:18 PM,77.0,69.8,78,29.97,6.2,WSW,5.8,-,N/A,Thunderstorm,Scattered Clouds,240,2013-08-18 20:18:00
3:00 PM,73,66,73,,6,West,10.4,,,,Overcast,260,2013-08-18 21:00:00
3:00 PM,73.4,66.2,78,29.98,6.2,West,10.4,-,N/A,Thunderstorm,Mostly Cloudy,260,2013-08-18 21:00:00
3:10 PM,71.6,69.8,94,29.99,3.1,West,12.7,-,N/A,Thunderstorm,Mostly Cloudy,270,2013-08-18 21:10:00
3:42 PM,71.6,69.8,94,29.98,4.3,West,10.4,-,N/A,Thunderstorm,Thunderstorm,280,2013-08-18 21:42:00
4:00 PM,71.6,69.8,94,29.99,2.5,West,10.4,-,N/A,Fog-Rain-Thunderstorm,Rain,280,2013-08-18 22:00:00
4:33 PM,69.8,68.0,94,30.01,0.6,East,2.3,-,N/A,Rain-Thunderstorm,Rain Showers,100,2013-08-18 22:33:00
5:00 PM,66.2,66.2,100,30.01,5.6,Variable,4.6,-,N/A,Rain-Thunderstorm,Thunderstorms and Rain,0,2013-08-18 23:00:00
6:00 PM,68,67,98,,5,WNW,4.6,,,Rain,Light Rain,300,2013-08-19 00:00:00
6:00 PM,68.0,68.0,100,30.03,5.0,WNW,4.6,-,N/A,Fog-Rain-Thunderstorm,Light Rain,300,2013-08-19 00:00:00